sensor_id;sensor_type;location;lat;lon;timestamp;P1;durP1;ratioP1;P2;durP2;ratioP2
23206;SDS011;11773;52.570;13.052;2022-07-29T00:00:18;0.47;;;0.47;;
23206;SDS011;11773;52.570;13.052;2022-07-29T00:02:47;0.50;;;0.50;;
23206;SDS011;11773;52.570;13.052;2022-07-29T00:05:17;0.53;;;0.50;;
23206;SDS011;11773;52.570;13.052;2022-07-29T00:07:47;0.50;;;0.50;;
23206;SDS011;11773;52.570;13.052;2022-07-29T00:10:16;0.83;;;0.60;;
23206;SDS011;11773;52.570;13.052;2022-07-29T00:12:46;0.60;;;0.57;;
23206;SDS011;11773;52.570;13.052;2022-07-29T00:15:15;0.50;;;0.50;;
23206;SDS011;11773;52.570;13.052;2022-07-29T00:17:45;0.40;;;0.40;;
23206;SDS011;11773;52.570;13.052;2022-07-29T00:20:14;0.40;;;0.40;;
23206;SDS011;11773;52.570;13.052;2022-07-29T00:22:44;0.50;;;0.47;;
23206;SDS011;11773;52.570;13.052;2022-07-29T00:25:14;0.63;;;0.63;;
23206;SDS011;11773;52.570;13.052;2022-07-29T00:27:43;0.30;;;0.30;;
23206;SDS011;11773;52.570;13.052;2022-07-29T00:30:13;0.50;;;0.50;;
23206;SDS011;11773;52.570;13.052;2022-07-29T00:32:43;0.97;;;0.80;;
23206;SDS011;11773;52.570;13.052;2022-07-29T00:35:12;0.87;;;0.67;;
23206;SDS011;11773;52.570;13.052;2022-07-29T00:38:00;0.40;;;0.40;;
23206;SDS011;11773;52.570;13.052;2022-07-29T00:40:29;0.53;;;0.53;;
23206;SDS011;11773;52.570;13.052;2022-07-29T00:42:59;0.60;;;0.60;;
23206;SDS011;11773;52.570;13.052;2022-07-29T00:45:28;0.50;;;0.50;;
23206;SDS011;11773;52.570;13.052;2022-07-29T00:47:58;0.40;;;0.40;;
23206;SDS011;11773;52.570;13.052;2022-07-29T00:50:28;0.73;;;0.73;;
23206;SDS011;11773;52.570;13.052;2022-07-29T00:52:58;0.53;;;0.53;;
23206;SDS011;11773;52.570;13.052;2022-07-29T00:55:29;0.60;;;0.60;;
23206;SDS011;11773;52.570;13.052;2022-07-29T00:57:58;0.53;;;0.53;;
23206;SDS011;11773;52.570;13.052;2022-07-29T01:00:29;0.47;;;0.47;;
23206;SDS011;11773;52.570;13.052;2022-07-29T01:02:59;0.63;;;0.63;;
23206;SDS011;11773;52.570;13.052;2022-07-29T01:05:30;0.67;;;0.60;;
23206;SDS011;11773;52.570;13.052;2022-07-29T01:08:02;0.93;;;0.43;;
23206;SDS011;11773;52.570;13.052;2022-07-29T01:10:32;0.43;;;0.43;;
23206;SDS011;11773;52.570;13.052;2022-07-29T01:13:05;1.07;;;0.63;;
23206;SDS011;11773;52.570;13.052;2022-07-29T01:15:42;0.60;;;0.60;;
23206;SDS011;11773;52.570;13.052;2022-07-29T01:18:16;0.63;;;0.60;;
23206;SDS011;11773;52.570;13.052;2022-07-29T01:24:03;0.97;;;0.80;;
23206;SDS011;11773;52.570;13.052;2022-07-29T01:27:06;0.60;;;0.60;;
23206;SDS011;11773;52.570;13.052;2022-07-29T01:29:48;0.70;;;0.70;;
23206;SDS011;11773;52.570;13.052;2022-07-29T01:32:20;0.60;;;0.60;;
23206;SDS011;11773;52.570;13.052;2022-07-29T01:35:16;0.60;;;0.60;;
23206;SDS011;11773;52.570;13.052;2022-07-29T01:37:57;0.47;;;0.47;;
23206;SDS011;11773;52.570;13.052;2022-07-29T01:40:45;0.90;;;0.67;;
23206;SDS011;11773;52.570;13.052;2022-07-29T01:43:39;0.80;;;0.73;;
23206;SDS011;11773;52.570;13.052;2022-07-29T01:46:20;0.47;;;0.47;;
23206;SDS011;11773;52.570;13.052;2022-07-29T01:49:02;0.50;;;0.50;;
23206;SDS011;11773;52.570;13.052;2022-07-29T01:51:47;0.50;;;0.50;;
23206;SDS011;11773;52.570;13.052;2022-07-29T01:54:34;0.93;;;0.70;;
23206;SDS011;11773;52.570;13.052;2022-07-29T01:57:13;0.53;;;0.50;;
23206;SDS011;11773;52.570;13.052;2022-07-29T01:59:47;0.50;;;0.50;;
23206;SDS011;11773;52.570;13.052;2022-07-29T02:02:20;0.90;;;0.83;;
23206;SDS011;11773;52.570;13.052;2022-07-29T02:04:52;0.70;;;0.67;;
23206;SDS011;11773;52.570;13.052;2022-07-29T02:07:23;1.07;;;0.67;;
23206;SDS011;11773;52.570;13.052;2022-07-29T02:09:57;0.70;;;0.70;;
23206;SDS011;11773;52.570;13.052;2022-07-29T02:12:30;0.97;;;0.60;;
23206;SDS011;11773;52.570;13.052;2022-07-29T02:15:02;0.60;;;0.60;;
23206;SDS011;11773;52.570;13.052;2022-07-29T02:17:44;0.60;;;0.60;;
23206;SDS011;11773;52.570;13.052;2022-07-29T02:20:23;0.53;;;0.53;;
23206;SDS011;11773;52.570;13.052;2022-07-29T02:22:55;0.77;;;0.60;;
23206;SDS011;11773;52.570;13.052;2022-07-29T02:25:28;0.50;;;0.50;;
23206;SDS011;11773;52.570;13.052;2022-07-29T02:28:01;0.53;;;0.53;;
23206;SDS011;11773;52.570;13.052;2022-07-29T02:30:34;0.50;;;0.50;;
23206;SDS011;11773;52.570;13.052;2022-07-29T02:33:08;0.57;;;0.57;;
23206;SDS011;11773;52.570;13.052;2022-07-29T02:35:40;3.00;;;0.90;;
23206;SDS011;11773;52.570;13.052;2022-07-29T02:38:14;0.70;;;0.70;;
23206;SDS011;11773;52.570;13.052;2022-07-29T02:41:05;0.50;;;0.50;;
23206;SDS011;11773;52.570;13.052;2022-07-29T02:43:41;0.50;;;0.50;;
23206;SDS011;11773;52.570;13.052;2022-07-29T02:46:17;0.60;;;0.60;;
23206;SDS011;11773;52.570;13.052;2022-07-29T02:48:59;0.50;;;0.50;;
23206;SDS011;11773;52.570;13.052;2022-07-29T02:51:58;0.73;;;0.70;;
23206;SDS011;11773;52.570;13.052;2022-07-29T02:55:11;0.70;;;0.60;;
23206;SDS011;11773;52.570;13.052;2022-07-29T02:58:05;0.30;;;0.30;;
23206;SDS011;11773;52.570;13.052;2022-07-29T03:00:43;0.47;;;0.47;;
23206;SDS011;11773;52.570;13.052;2022-07-29T03:03:17;0.50;;;0.50;;
23206;SDS011;11773;52.570;13.052;2022-07-29T03:05:48;0.50;;;0.50;;
23206;SDS011;11773;52.570;13.052;2022-07-29T03:08:19;0.50;;;0.50;;
23206;SDS011;11773;52.570;13.052;2022-07-29T03:10:49;1.23;;;0.97;;
23206;SDS011;11773;52.570;13.052;2022-07-29T03:13:21;0.70;;;0.70;;
23206;SDS011;11773;52.570;13.052;2022-07-29T03:15:52;0.60;;;0.57;;
23206;SDS011;11773;52.570;13.052;2022-07-29T03:18:25;0.47;;;0.47;;
23206;SDS011;11773;52.570;13.052;2022-07-29T03:20:54;0.60;;;0.60;;
23206;SDS011;11773;52.570;13.052;2022-07-29T03:23:25;0.70;;;0.70;;
23206;SDS011;11773;52.570;13.052;2022-07-29T03:25:56;0.90;;;0.90;;
23206;SDS011;11773;52.570;13.052;2022-07-29T03:28:26;1.10;;;1.00;;
23206;SDS011;11773;52.570;13.052;2022-07-29T03:30:55;0.90;;;0.90;;
23206;SDS011;11773;52.570;13.052;2022-07-29T03:33:25;0.60;;;0.50;;
23206;SDS011;11773;52.570;13.052;2022-07-29T03:35:56;0.50;;;0.50;;
23206;SDS011;11773;52.570;13.052;2022-07-29T03:38:26;0.70;;;0.53;;
23206;SDS011;11773;52.570;13.052;2022-07-29T03:41:01;0.53;;;0.50;;
23206;SDS011;11773;52.570;13.052;2022-07-29T03:43:34;0.80;;;0.50;;
23206;SDS011;11773;52.570;13.052;2022-07-29T03:46:10;0.83;;;0.60;;
23206;SDS011;11773;52.570;13.052;2022-07-29T03:48:46;0.60;;;0.60;;
23206;SDS011;11773;52.570;13.052;2022-07-29T03:51:18;1.63;;;0.90;;
23206;SDS011;11773;52.570;13.052;2022-07-29T03:53:49;0.60;;;0.60;;
23206;SDS011;11773;52.570;13.052;2022-07-29T03:56:21;0.40;;;0.40;;
23206;SDS011;11773;52.570;13.052;2022-07-29T03:58:51;0.80;;;0.80;;
23206;SDS011;11773;52.570;13.052;2022-07-29T04:01:21;0.50;;;0.47;;
23206;SDS011;11773;52.570;13.052;2022-07-29T04:03:52;0.60;;;0.60;;
23206;SDS011;11773;52.570;13.052;2022-07-29T04:06:22;0.60;;;0.60;;
23206;SDS011;11773;52.570;13.052;2022-07-29T04:08:52;0.87;;;0.80;;
23206;SDS011;11773;52.570;13.052;2022-07-29T04:11:22;0.60;;;0.60;;
23206;SDS011;11773;52.570;13.052;2022-07-29T04:13:51;0.60;;;0.60;;
23206;SDS011;11773;52.570;13.052;2022-07-29T04:16:21;1.30;;;0.60;;
23206;SDS011;11773;52.570;13.052;2022-07-29T04:18:50;0.77;;;0.77;;
23206;SDS011;11773;52.570;13.052;2022-07-29T04:21:20;0.73;;;0.73;;
23206;SDS011;11773;52.570;13.052;2022-07-29T04:23:49;0.70;;;0.70;;
23206;SDS011;11773;52.570;13.052;2022-07-29T04:26:20;0.70;;;0.50;;
23206;SDS011;11773;52.570;13.052;2022-07-29T04:28:49;0.63;;;0.60;;
23206;SDS011;11773;52.570;13.052;2022-07-29T04:31:19;1.03;;;0.70;;
23206;SDS011;11773;52.570;13.052;2022-07-29T04:33:50;0.90;;;0.80;;
23206;SDS011;11773;52.570;13.052;2022-07-29T04:36:19;0.57;;;0.57;;
23206;SDS011;11773;52.570;13.052;2022-07-29T04:38:51;0.73;;;0.70;;
23206;SDS011;11773;52.570;13.052;2022-07-29T04:41:20;0.80;;;0.80;;
23206;SDS011;11773;52.570;13.052;2022-07-29T04:43:52;0.60;;;0.60;;
23206;SDS011;11773;52.570;13.052;2022-07-29T04:46:23;0.77;;;0.70;;
23206;SDS011;11773;52.570;13.052;2022-07-29T04:48:53;0.60;;;0.60;;
23206;SDS011;11773;52.570;13.052;2022-07-29T04:51:22;0.73;;;0.70;;
23206;SDS011;11773;52.570;13.052;2022-07-29T04:53:52;0.73;;;0.73;;
23206;SDS011;11773;52.570;13.052;2022-07-29T04:56:21;0.50;;;0.50;;
23206;SDS011;11773;52.570;13.052;2022-07-29T04:58:51;0.90;;;0.90;;
23206;SDS011;11773;52.570;13.052;2022-07-29T05:01:20;0.60;;;0.50;;
23206;SDS011;11773;52.570;13.052;2022-07-29T05:03:50;0.73;;;0.50;;
23206;SDS011;11773;52.570;13.052;2022-07-29T05:06:21;1.47;;;1.00;;
23206;SDS011;11773;52.570;13.052;2022-07-29T05:08:51;1.87;;;1.17;;
23206;SDS011;11773;52.570;13.052;2022-07-29T05:11:20;0.90;;;0.90;;
23206;SDS011;11773;52.570;13.052;2022-07-29T05:13:51;1.40;;;1.30;;
23206;SDS011;11773;52.570;13.052;2022-07-29T05:16:21;1.67;;;1.23;;
23206;SDS011;11773;52.570;13.052;2022-07-29T05:18:51;0.80;;;0.80;;
23206;SDS011;11773;52.570;13.052;2022-07-29T05:21:20;0.70;;;0.70;;
23206;SDS011;11773;52.570;13.052;2022-07-29T05:23:50;0.50;;;0.50;;
23206;SDS011;11773;52.570;13.052;2022-07-29T05:26:19;0.60;;;0.60;;
23206;SDS011;11773;52.570;13.052;2022-07-29T05:28:49;0.93;;;0.90;;
23206;SDS011;11773;52.570;13.052;2022-07-29T05:31:19;1.33;;;1.10;;
23206;SDS011;11773;52.570;13.052;2022-07-29T05:33:48;1.23;;;1.13;;
23206;SDS011;11773;52.570;13.052;2022-07-29T05:36:18;0.80;;;0.80;;
23206;SDS011;11773;52.570;13.052;2022-07-29T05:38:47;1.17;;;1.10;;
23206;SDS011;11773;52.570;13.052;2022-07-29T05:41:19;0.80;;;0.80;;
23206;SDS011;11773;52.570;13.052;2022-07-29T05:43:48;1.73;;;1.10;;
23206;SDS011;11773;52.570;13.052;2022-07-29T05:46:18;0.80;;;0.80;;
23206;SDS011;11773;52.570;13.052;2022-07-29T05:48:47;1.73;;;0.97;;
23206;SDS011;11773;52.570;13.052;2022-07-29T05:51:17;0.80;;;0.80;;
23206;SDS011;11773;52.570;13.052;2022-07-29T05:53:46;1.37;;;0.90;;
23206;SDS011;11773;52.570;13.052;2022-07-29T05:56:16;1.20;;;1.10;;
23206;SDS011;11773;52.570;13.052;2022-07-29T05:58:45;0.77;;;0.70;;
23206;SDS011;11773;52.570;13.052;2022-07-29T06:01:15;2.10;;;1.30;;
23206;SDS011;11773;52.570;13.052;2022-07-29T06:03:44;0.93;;;0.93;;
23206;SDS011;11773;52.570;13.052;2022-07-29T06:06:14;1.53;;;1.20;;
23206;SDS011;11773;52.570;13.052;2022-07-29T06:08:43;1.37;;;1.20;;
23206;SDS011;11773;52.570;13.052;2022-07-29T06:11:13;1.00;;;1.00;;
23206;SDS011;11773;52.570;13.052;2022-07-29T06:13:42;1.13;;;0.70;;
23206;SDS011;11773;52.570;13.052;2022-07-29T06:16:12;1.30;;;1.20;;
23206;SDS011;11773;52.570;13.052;2022-07-29T06:18:43;1.33;;;0.83;;
23206;SDS011;11773;52.570;13.052;2022-07-29T06:21:13;1.10;;;1.00;;
23206;SDS011;11773;52.570;13.052;2022-07-29T06:23:42;0.70;;;0.70;;
23206;SDS011;11773;52.570;13.052;2022-07-29T06:26:13;0.70;;;0.70;;
23206;SDS011;11773;52.570;13.052;2022-07-29T06:28:43;0.73;;;0.73;;
23206;SDS011;11773;52.570;13.052;2022-07-29T06:31:12;1.13;;;1.03;;
23206;SDS011;11773;52.570;13.052;2022-07-29T06:33:42;1.40;;;1.03;;
23206;SDS011;11773;52.570;13.052;2022-07-29T06:36:11;0.80;;;0.80;;
23206;SDS011;11773;52.570;13.052;2022-07-29T06:38:41;1.00;;;1.00;;
23206;SDS011;11773;52.570;13.052;2022-07-29T06:41:12;1.03;;;1.00;;
23206;SDS011;11773;52.570;13.052;2022-07-29T06:43:43;1.10;;;1.00;;
23206;SDS011;11773;52.570;13.052;2022-07-29T06:46:15;1.60;;;1.20;;
23206;SDS011;11773;52.570;13.052;2022-07-29T06:48:47;1.40;;;1.20;;
23206;SDS011;11773;52.570;13.052;2022-07-29T06:51:20;1.43;;;1.30;;
23206;SDS011;11773;52.570;13.052;2022-07-29T06:53:51;1.33;;;1.23;;
23206;SDS011;11773;52.570;13.052;2022-07-29T06:56:22;2.13;;;1.33;;
23206;SDS011;11773;52.570;13.052;2022-07-29T06:58:52;1.80;;;1.50;;
23206;SDS011;11773;52.570;13.052;2022-07-29T07:01:22;1.27;;;1.13;;
23206;SDS011;11773;52.570;13.052;2022-07-29T07:03:51;0.97;;;0.97;;
23206;SDS011;11773;52.570;13.052;2022-07-29T07:06:21;1.67;;;0.90;;
23206;SDS011;11773;52.570;13.052;2022-07-29T07:08:50;1.87;;;1.00;;
23206;SDS011;11773;52.570;13.052;2022-07-29T07:11:20;0.90;;;0.90;;
23206;SDS011;11773;52.570;13.052;2022-07-29T07:13:50;0.90;;;0.80;;
23206;SDS011;11773;52.570;13.052;2022-07-29T07:16:19;1.83;;;1.50;;
23206;SDS011;11773;52.570;13.052;2022-07-29T07:18:49;1.10;;;1.00;;
23206;SDS011;11773;52.570;13.052;2022-07-29T07:21:18;1.57;;;1.27;;
23206;SDS011;11773;52.570;13.052;2022-07-29T07:23:48;1.40;;;1.30;;
23206;SDS011;11773;52.570;13.052;2022-07-29T07:26:17;1.47;;;1.23;;
23206;SDS011;11773;52.570;13.052;2022-07-29T07:28:47;1.40;;;1.30;;
23206;SDS011;11773;52.570;13.052;2022-07-29T07:31:16;1.67;;;1.40;;
23206;SDS011;11773;52.570;13.052;2022-07-29T07:33:47;1.30;;;1.20;;
23206;SDS011;11773;52.570;13.052;2022-07-29T07:36:16;1.57;;;1.27;;
23206;SDS011;11773;52.570;13.052;2022-07-29T07:38:46;2.63;;;1.40;;
23206;SDS011;11773;52.570;13.052;2022-07-29T07:41:15;1.30;;;1.20;;
23206;SDS011;11773;52.570;13.052;2022-07-29T07:43:45;1.50;;;1.40;;
23206;SDS011;11773;52.570;13.052;2022-07-29T07:46:14;1.30;;;1.10;;
23206;SDS011;11773;52.570;13.052;2022-07-29T07:48:44;1.10;;;1.00;;
23206;SDS011;11773;52.570;13.052;2022-07-29T07:51:14;1.47;;;1.03;;
23206;SDS011;11773;52.570;13.052;2022-07-29T07:53:43;1.63;;;1.53;;
23206;SDS011;11773;52.570;13.052;2022-07-29T07:56:15;1.93;;;1.67;;
23206;SDS011;11773;52.570;13.052;2022-07-29T07:58:44;1.80;;;1.57;;
23206;SDS011;11773;52.570;13.052;2022-07-29T08:01:14;1.60;;;1.50;;
23206;SDS011;11773;52.570;13.052;2022-07-29T08:03:46;1.40;;;1.30;;
23206;SDS011;11773;52.570;13.052;2022-07-29T08:06:15;1.30;;;1.20;;
23206;SDS011;11773;52.570;13.052;2022-07-29T08:08:45;1.37;;;1.27;;
23206;SDS011;11773;52.570;13.052;2022-07-29T08:11:14;2.50;;;1.40;;
23206;SDS011;11773;52.570;13.052;2022-07-29T08:13:44;3.00;;;1.53;;
23206;SDS011;11773;52.570;13.052;2022-07-29T08:16:14;1.50;;;1.40;;
23206;SDS011;11773;52.570;13.052;2022-07-29T08:18:44;1.10;;;0.90;;
23206;SDS011;11773;52.570;13.052;2022-07-29T08:21:14;1.40;;;1.30;;
23206;SDS011;11773;52.570;13.052;2022-07-29T08:23:44;1.37;;;1.27;;
23206;SDS011;11773;52.570;13.052;2022-07-29T08:26:17;1.93;;;1.60;;
23206;SDS011;11773;52.570;13.052;2022-07-29T08:28:49;1.47;;;1.20;;
23206;SDS011;11773;52.570;13.052;2022-07-29T08:31:18;1.50;;;1.20;;
23206;SDS011;11773;52.570;13.052;2022-07-29T08:33:48;1.37;;;1.27;;
23206;SDS011;11773;52.570;13.052;2022-07-29T08:36:18;1.43;;;1.17;;
23206;SDS011;11773;52.570;13.052;2022-07-29T08:38:48;1.40;;;1.30;;
23206;SDS011;11773;52.570;13.052;2022-07-29T08:41:18;1.50;;;1.30;;
23206;SDS011;11773;52.570;13.052;2022-07-29T08:43:48;1.80;;;1.40;;
23206;SDS011;11773;52.570;13.052;2022-07-29T08:46:19;1.23;;;1.20;;
23206;SDS011;11773;52.570;13.052;2022-07-29T08:48:50;1.50;;;1.10;;
23206;SDS011;11773;52.570;13.052;2022-07-29T08:51:19;1.47;;;1.00;;
23206;SDS011;11773;52.570;13.052;2022-07-29T08:53:50;1.53;;;1.03;;
23206;SDS011;11773;52.570;13.052;2022-07-29T08:56:20;1.50;;;1.40;;
23206;SDS011;11773;52.570;13.052;2022-07-29T08:58:51;1.20;;;1.07;;
23206;SDS011;11773;52.570;13.052;2022-07-29T09:01:22;1.40;;;1.30;;
23206;SDS011;11773;52.570;13.052;2022-07-29T09:03:57;1.33;;;1.20;;
23206;SDS011;11773;52.570;13.052;2022-07-29T09:06:31;1.50;;;1.33;;
23206;SDS011;11773;52.570;13.052;2022-07-29T09:09:03;1.37;;;1.10;;
23206;SDS011;11773;52.570;13.052;2022-07-29T09:11:35;1.30;;;1.10;;
23206;SDS011;11773;52.570;13.052;2022-07-29T09:14:04;1.33;;;1.10;;
23206;SDS011;11773;52.570;13.052;2022-07-29T09:16:55;1.30;;;1.20;;
23206;SDS011;11773;52.570;13.052;2022-07-29T09:19:26;1.30;;;1.10;;
23206;SDS011;11773;52.570;13.052;2022-07-29T09:21:59;1.53;;;1.23;;
23206;SDS011;11773;52.570;13.052;2022-07-29T09:29:57;1.23;;;1.10;;
23206;SDS011;11773;52.570;13.052;2022-07-29T09:32:29;1.27;;;1.07;;
23206;SDS011;11773;52.570;13.052;2022-07-29T09:35:13;1.00;;;0.90;;
23206;SDS011;11773;52.570;13.052;2022-07-29T09:37:51;3.30;;;1.13;;
23206;SDS011;11773;52.570;13.052;2022-07-29T09:40:23;1.47;;;1.37;;
23206;SDS011;11773;52.570;13.052;2022-07-29T09:42:55;1.13;;;1.10;;
23206;SDS011;11773;52.570;13.052;2022-07-29T09:45:32;1.20;;;1.10;;
23206;SDS011;11773;52.570;13.052;2022-07-29T09:48:17;1.87;;;1.33;;
23206;SDS011;11773;52.570;13.052;2022-07-29T09:50:53;2.37;;;1.43;;
23206;SDS011;11773;52.570;13.052;2022-07-29T09:53:41;1.50;;;1.40;;
23206;SDS011;11773;52.570;13.052;2022-07-29T09:56:06;2.80;;;1.50;;
23206;SDS011;11773;52.570;13.052;2022-07-29T09:58:37;1.37;;;1.27;;
23206;SDS011;11773;52.570;13.052;2022-07-29T10:01:07;1.43;;;1.33;;
23206;SDS011;11773;52.570;13.052;2022-07-29T10:03:52;1.70;;;1.30;;
23206;SDS011;11773;52.570;13.052;2022-07-29T10:06:22;1.83;;;1.30;;
23206;SDS011;11773;52.570;13.052;2022-07-29T10:08:51;1.80;;;1.40;;
23206;SDS011;11773;52.570;13.052;2022-07-29T10:11:21;1.40;;;1.30;;
23206;SDS011;11773;52.570;13.052;2022-07-29T10:13:52;1.40;;;1.23;;
23206;SDS011;11773;52.570;13.052;2022-07-29T10:16:22;1.77;;;1.30;;
23206;SDS011;11773;52.570;13.052;2022-07-29T10:18:53;1.20;;;1.10;;
23206;SDS011;11773;52.570;13.052;2022-07-29T10:21:23;1.20;;;1.10;;
23206;SDS011;11773;52.570;13.052;2022-07-29T10:23:56;1.07;;;1.03;;
23206;SDS011;11773;52.570;13.052;2022-07-29T10:26:28;1.10;;;1.00;;
23206;SDS011;11773;52.570;13.052;2022-07-29T10:28:58;1.30;;;1.20;;
23206;SDS011;11773;52.570;13.052;2022-07-29T10:31:29;1.63;;;1.20;;
23206;SDS011;11773;52.570;13.052;2022-07-29T10:34:18;1.03;;;1.03;;
23206;SDS011;11773;52.570;13.052;2022-07-29T10:37:18;1.10;;;1.10;;
23206;SDS011;11773;52.570;13.052;2022-07-29T10:43:22;1.17;;;1.07;;
23206;SDS011;11773;52.570;13.052;2022-07-29T10:46:02;1.33;;;1.23;;
23206;SDS011;11773;52.570;13.052;2022-07-29T10:48:33;1.10;;;1.00;;
23206;SDS011;11773;52.570;13.052;2022-07-29T10:51:05;0.90;;;0.80;;
23206;SDS011;11773;52.570;13.052;2022-07-29T10:53:47;1.70;;;1.17;;
23206;SDS011;11773;52.570;13.052;2022-07-29T10:56:30;1.10;;;1.00;;
23206;SDS011;11773;52.570;13.052;2022-07-29T11:01:55;1.50;;;1.40;;
23206;SDS011;11773;52.570;13.052;2022-07-29T11:07:18;1.20;;;1.07;;
23206;SDS011;11773;52.570;13.052;2022-07-29T11:12:46;1.47;;;1.37;;
23206;SDS011;11773;52.570;13.052;2022-07-29T11:15:21;2.00;;;1.33;;
23206;SDS011;11773;52.570;13.052;2022-07-29T11:20:35;2.00;;;1.27;;
23206;SDS011;11773;52.570;13.052;2022-07-29T11:23:27;1.70;;;1.10;;
23206;SDS011;11773;52.570;13.052;2022-07-29T11:28:50;1.20;;;1.10;;
23206;SDS011;11773;52.570;13.052;2022-07-29T11:31:39;2.17;;;1.30;;
23206;SDS011;11773;52.570;13.052;2022-07-29T11:39:44;1.30;;;1.20;;
23206;SDS011;11773;52.570;13.052;2022-07-29T11:44:57;1.17;;;1.10;;
23206;SDS011;11773;52.570;13.052;2022-07-29T11:47:36;1.10;;;1.00;;
23206;SDS011;11773;52.570;13.052;2022-07-29T11:50:16;1.63;;;1.20;;
23206;SDS011;11773;52.570;13.052;2022-07-29T11:52:51;0.90;;;0.90;;
23206;SDS011;11773;52.570;13.052;2022-07-29T11:55:22;1.00;;;0.90;;
23206;SDS011;11773;52.570;13.052;2022-07-29T11:57:57;1.20;;;1.10;;
23206;SDS011;11773;52.570;13.052;2022-07-29T12:00:31;1.80;;;0.90;;
23206;SDS011;11773;52.570;13.052;2022-07-29T12:03:05;1.57;;;1.23;;
23206;SDS011;11773;52.570;13.052;2022-07-29T12:05:39;1.43;;;1.33;;
23206;SDS011;11773;52.570;13.052;2022-07-29T12:08:15;1.30;;;1.20;;
23206;SDS011;11773;52.570;13.052;2022-07-29T12:10:49;0.70;;;0.70;;
23206;SDS011;11773;52.570;13.052;2022-07-29T12:13:21;0.80;;;0.80;;
23206;SDS011;11773;52.570;13.052;2022-07-29T12:15:53;0.93;;;0.90;;
23206;SDS011;11773;52.570;13.052;2022-07-29T12:18:26;1.00;;;1.00;;
23206;SDS011;11773;52.570;13.052;2022-07-29T12:20:56;2.00;;;1.20;;
23206;SDS011;11773;52.570;13.052;2022-07-29T12:23:31;1.10;;;1.10;;
23206;SDS011;11773;52.570;13.052;2022-07-29T12:26:05;2.20;;;1.40;;
23206;SDS011;11773;52.570;13.052;2022-07-29T12:28:37;1.43;;;1.33;;
23206;SDS011;11773;52.570;13.052;2022-07-29T12:31:12;1.30;;;1.20;;
23206;SDS011;11773;52.570;13.052;2022-07-29T12:33:50;1.20;;;1.10;;
23206;SDS011;11773;52.570;13.052;2022-07-29T12:36:22;1.30;;;1.20;;
23206;SDS011;11773;52.570;13.052;2022-07-29T12:38:52;1.50;;;1.40;;
23206;SDS011;11773;52.570;13.052;2022-07-29T12:41:22;1.40;;;1.30;;
23206;SDS011;11773;52.570;13.052;2022-07-29T12:43:52;1.23;;;1.13;;
23206;SDS011;11773;52.570;13.052;2022-07-29T12:46:23;1.50;;;1.40;;
23206;SDS011;11773;52.570;13.052;2022-07-29T12:51:31;1.30;;;1.20;;
23206;SDS011;11773;52.570;13.052;2022-07-29T12:54:05;1.60;;;1.50;;
23206;SDS011;11773;52.570;13.052;2022-07-29T12:56:38;1.77;;;1.67;;
23206;SDS011;11773;52.570;13.052;2022-07-29T12:59:18;1.80;;;1.70;;
23206;SDS011;11773;52.570;13.052;2022-07-29T13:01:50;1.60;;;1.50;;
23206;SDS011;11773;52.570;13.052;2022-07-29T13:04:28;4.30;;;1.73;;
23206;SDS011;11773;52.570;13.052;2022-07-29T13:07:03;2.77;;;1.50;;
23206;SDS011;11773;52.570;13.052;2022-07-29T13:09:40;1.17;;;1.17;;
23206;SDS011;11773;52.570;13.052;2022-07-29T13:12:13;1.40;;;1.30;;
23206;SDS011;11773;52.570;13.052;2022-07-29T13:14:44;1.60;;;1.40;;
23206;SDS011;11773;52.570;13.052;2022-07-29T13:17:16;1.70;;;1.60;;
23206;SDS011;11773;52.570;13.052;2022-07-29T13:20:03;2.40;;;1.80;;
23206;SDS011;11773;52.570;13.052;2022-07-29T13:22:41;1.63;;;1.37;;
23206;SDS011;11773;52.570;13.052;2022-07-29T13:25:10;1.73;;;1.63;;
23206;SDS011;11773;52.570;13.052;2022-07-29T13:27:40;1.70;;;1.60;;
23206;SDS011;11773;52.570;13.052;2022-07-29T13:30:11;2.77;;;2.10;;
23206;SDS011;11773;52.570;13.052;2022-07-29T13:32:41;1.73;;;1.63;;
23206;SDS011;11773;52.570;13.052;2022-07-29T13:35:11;2.10;;;1.93;;
23206;SDS011;11773;52.570;13.052;2022-07-29T13:37:41;1.70;;;1.60;;
23206;SDS011;11773;52.570;13.052;2022-07-29T13:40:10;1.73;;;1.50;;
23206;SDS011;11773;52.570;13.052;2022-07-29T13:42:41;2.00;;;1.60;;
23206;SDS011;11773;52.570;13.052;2022-07-29T13:45:12;1.70;;;1.60;;
23206;SDS011;11773;52.570;13.052;2022-07-29T13:47:42;1.60;;;1.50;;
23206;SDS011;11773;52.570;13.052;2022-07-29T13:50:13;1.57;;;1.20;;
23206;SDS011;11773;52.570;13.052;2022-07-29T13:52:43;1.50;;;1.40;;
23206;SDS011;11773;52.570;13.052;2022-07-29T13:55:14;1.37;;;1.27;;
23206;SDS011;11773;52.570;13.052;2022-07-29T13:57:43;1.87;;;1.53;;
23206;SDS011;11773;52.570;13.052;2022-07-29T14:00:14;2.03;;;1.80;;
23206;SDS011;11773;52.570;13.052;2022-07-29T14:02:45;1.63;;;1.53;;
23206;SDS011;11773;52.570;13.052;2022-07-29T14:05:15;1.73;;;1.63;;
23206;SDS011;11773;52.570;13.052;2022-07-29T14:07:44;2.00;;;1.90;;
23206;SDS011;11773;52.570;13.052;2022-07-29T14:10:14;1.60;;;1.50;;
23206;SDS011;11773;52.570;13.052;2022-07-29T14:12:45;1.50;;;1.40;;
23206;SDS011;11773;52.570;13.052;2022-07-29T14:15:14;1.43;;;1.33;;
23206;SDS011;11773;52.570;13.052;2022-07-29T14:17:44;1.33;;;1.23;;
23206;SDS011;11773;52.570;13.052;2022-07-29T14:20:13;1.30;;;1.20;;
23206;SDS011;11773;52.570;13.052;2022-07-29T14:22:43;1.67;;;1.37;;
23206;SDS011;11773;52.570;13.052;2022-07-29T14:25:12;1.53;;;1.43;;
23206;SDS011;11773;52.570;13.052;2022-07-29T14:27:42;1.80;;;1.70;;
23206;SDS011;11773;52.570;13.052;2022-07-29T14:30:12;2.00;;;1.57;;
23206;SDS011;11773;52.570;13.052;2022-07-29T14:32:43;2.40;;;1.73;;
23206;SDS011;11773;52.570;13.052;2022-07-29T14:35:13;2.03;;;1.93;;
23206;SDS011;11773;52.570;13.052;2022-07-29T14:37:42;1.90;;;1.80;;
23206;SDS011;11773;52.570;13.052;2022-07-29T14:40:12;1.10;;;1.10;;
23206;SDS011;11773;52.570;13.052;2022-07-29T14:42:41;1.40;;;1.30;;
23206;SDS011;11773;52.570;13.052;2022-07-29T14:45:11;1.13;;;1.13;;
23206;SDS011;11773;52.570;13.052;2022-07-29T14:47:41;1.10;;;1.10;;
23206;SDS011;11773;52.570;13.052;2022-07-29T14:50:10;1.33;;;1.23;;
23206;SDS011;11773;52.570;13.052;2022-07-29T14:52:40;1.47;;;1.40;;
23206;SDS011;11773;52.570;13.052;2022-07-29T14:55:10;1.00;;;1.00;;
23206;SDS011;11773;52.570;13.052;2022-07-29T14:57:41;1.10;;;1.10;;
23206;SDS011;11773;52.570;13.052;2022-07-29T15:00:11;1.10;;;1.10;;
23206;SDS011;11773;52.570;13.052;2022-07-29T15:02:40;1.10;;;1.00;;
23206;SDS011;11773;52.570;13.052;2022-07-29T15:05:12;1.17;;;1.17;;
23206;SDS011;11773;52.570;13.052;2022-07-29T15:07:41;1.30;;;1.20;;
23206;SDS011;11773;52.570;13.052;2022-07-29T15:10:10;1.50;;;1.40;;
23206;SDS011;11773;52.570;13.052;2022-07-29T15:12:41;1.77;;;1.67;;
23206;SDS011;11773;52.570;13.052;2022-07-29T15:15:10;1.77;;;1.47;;
23206;SDS011;11773;52.570;13.052;2022-07-29T15:17:40;1.20;;;0.97;;
23206;SDS011;11773;52.570;13.052;2022-07-29T15:20:10;1.57;;;1.47;;
23206;SDS011;11773;52.570;13.052;2022-07-29T15:22:39;1.60;;;1.50;;
23206;SDS011;11773;52.570;13.052;2022-07-29T15:25:10;1.60;;;1.50;;
23206;SDS011;11773;52.570;13.052;2022-07-29T15:27:39;1.10;;;1.00;;
23206;SDS011;11773;52.570;13.052;2022-07-29T15:30:10;1.10;;;1.10;;
23206;SDS011;11773;52.570;13.052;2022-07-29T15:32:44;0.90;;;0.90;;
23206;SDS011;11773;52.570;13.052;2022-07-29T15:35:14;0.90;;;0.90;;
23206;SDS011;11773;52.570;13.052;2022-07-29T15:37:43;0.87;;;0.87;;
23206;SDS011;11773;52.570;13.052;2022-07-29T15:40:14;1.20;;;1.10;;